Time;durP1;ratioP1;P1;durP2;ratioP2;P2;SDS_P1;SDS_P2;PMS_P1;PMS_P2;Temp;Humidity;BMP_temperature;BMP_pressure;BME280_temperature;BME280_humidity;BME280_pressure;Samples;Min_cycle;Max_cycle;Signal;HPM_P1;HPM_P2
2022/08/26 00:01:02;129069.00;0.43;223.72;0.00;0.00;0.62;;;;;24.50;1.00;;;;;;2268386;61;1374;-88
2022/08/26 00:03:31;272034.00;0.91;469.84;0.00;0.00;0.62;;;;;24.40;1.00;;;;;;2268448;61;1590;-88
2022/08/26 00:05:58;376079.00;1.25;648.69;1705.00;0.01;3.58;;;;;24.40;1.00;;;;;;2268381;61;1440;-88
2022/08/26 00:08:25;447734.00;1.49;771.88;70552.00;0.24;122.71;;;;;24.40;1.00;;;;;;2268290;61;1388;-87
2022/08/26 00:10:53;1028784.00;3.43;1783.52;110404.00;0.37;191.53;;;;;24.40;1.00;;;;;;2268384;61;1601;-86
2022/08/26 00:13:20;1384678.00;4.62;2427.94;70929.00;0.24;123.37;;;;;24.50;1.00;;;;;;2268394;61;1919;-87
2022/08/26 00:15:49;1061444.00;3.54;1841.61;102153.00;0.34;177.29;;;;;24.70;1.00;;;;;;2268378;61;1579;-87
2022/08/26 00:18:17;1245479.00;4.15;2172.67;90528.00;0.30;157.22;;;;;24.70;1.00;;;;;;2268367;61;1404;-89
2022/08/26 00:20:46;1082689.00;3.61;1879.49;199383.00;0.66;344.86;;;;;24.80;1.00;;;;;;2268382;61;992;-88
2022/08/26 00:23:15;724790.00;2.42;1250.25;90689.00;0.30;157.50;;;;;24.90;1.00;;;;;;2268319;61;936;-87
2022/08/26 00:25:42;323413.00;1.08;558.16;61424.00;0.20;106.94;;;;;24.80;1.00;;;;;;2268392;61;1091;-87
2022/08/26 00:28:10;398537.00;1.33;687.29;69184.00;0.23;120.35;;;;;24.80;1.00;;;;;;2268295;61;2042;-88
2022/08/26 00:30:38;186449.00;0.62;322.59;0.00;0.00;0.62;;;;;24.70;1.00;;;;;;2268337;61;905;-87
2022/08/26 00:33:05;416319.00;1.39;717.86;74356.00;0.25;129.29;;;;;24.70;1.00;;;;;;2268224;61;1982;-88
2022/08/26 00:35:35;147141.00;0.49;254.88;0.00;0.00;0.62;;;;;24.40;1.00;;;;;;2268271;61;945;-87
2022/08/26 00:38:05;177241.00;0.59;306.74;0.00;0.00;0.62;;;;;24.30;1.00;;;;;;2268278;61;1448;-88
2022/08/26 00:40:36;179771.00;0.60;311.10;0.00;0.00;0.62;;;;;24.50;1.00;;;;;;2268315;61;2257;-88
2022/08/26 00:43:05;128381.00;0.43;222.54;0.00;0.00;0.62;;;;;24.50;1.00;;;;;;2268344;61;949;-89
2022/08/26 00:45:39;212586.00;0.71;367.59;24345.00;0.08;42.79;;;;;24.60;1.00;;;;;;2268291;61;1592;-89
2022/08/26 00:48:09;243557.00;0.81;420.87;0.00;0.00;0.62;;;;;24.50;1.00;;;;;;2268263;61;1546;-87
2022/08/26 00:50:41;126805.00;0.42;219.82;0.00;0.00;0.62;;;;;24.50;1.00;;;;;;2268218;61;940;-88
2022/08/26 00:53:21;179127.00;0.60;309.99;0.00;0.00;0.62;;;;;24.40;1.00;;;;;;2268304;61;1971;-87
2022/08/26 00:55:54;209781.00;0.70;362.76;0.00;0.00;0.62;;;;;24.20;1.00;;;;;;2268323;61;1029;-87
2022/08/26 00:58:23;272882.00;0.91;471.30;78453.00;0.26;136.37;;;;;24.00;1.00;;;;;;2268212;61;1567;-88
2022/08/26 01:00:51;148121.00;0.49;256.57;0.00;0.00;0.62;;;;;24.20;1.00;;;;;;2268186;61;1618;-87
2022/08/26 01:03:22;177254.00;0.59;306.76;0.00;0.00;0.62;;;;;24.20;1.00;;;;;;2268353;61;905;-88
2022/08/26 01:05:50;210051.00;0.70;363.22;46055.00;0.15;80.36;;;;;24.30;1.00;;;;;;2268213;61;1410;-88
2022/08/26 01:08:20;284827.00;0.95;491.84;0.00;0.00;0.62;;;;;24.30;1.00;;;;;;2268076;61;1675;-87
2022/08/26 01:10:51;151899.00;0.51;263.08;0.00;0.00;0.62;;;;;24.00;1.00;;;;;;2268297;61;959;-88
2022/08/26 01:13:19;464920.00;1.55;801.45;19765.00;0.07;34.86;;;;;23.80;1.00;;;;;;2268188;61;1988;-88
2022/08/26 01:15:50;1056424.00;3.52;1832.67;36952.00;0.12;64.61;;;;;23.70;1.00;;;;;;2268225;61;2161;-89
2022/08/26 01:18:19;1144866.00;3.82;1990.85;112441.00;0.37;195.04;;;;;23.70;1.00;;;;;;2268202;61;1474;-89
2022/08/26 01:20:58;1631174.00;5.44;2892.47;88223.00;0.29;153.24;;;;;23.60;1.00;;;;;;2268124;61;2156;-89
2022/08/26 01:23:35;1452321.00;4.84;2553.72;90202.00;0.30;156.66;;;;;23.70;1.00;;;;;;2268170;61;1579;-88
2022/08/26 01:26:09;1399395.00;4.66;2455.20;109691.00;0.37;190.30;;;;;24.00;1.00;;;;;;2268171;61;1612;-89
2022/08/26 01:28:39;1221074.00;4.07;2128.37;187931.00;0.63;325.15;;;;;24.10;1.00;;;;;;2268193;61;1464;-89
2022/08/26 01:31:11;1157511.00;3.86;2013.59;168403.00;0.56;291.52;;;;;24.20;1.00;;;;;;2268159;61;1574;-88
2022/08/26 01:33:47;601360.00;2.00;1036.57;80129.00;0.27;139.26;;;;;24.10;1.00;;;;;;2268022;61;1998;-87
2022/08/26 01:36:17;418079.00;1.39;720.89;62615.00;0.21;109.00;;;;;24.10;1.00;;;;;;2268121;61;1712;-88
2022/08/26 01:38:45;376980.00;1.26;650.23;54489.00;0.18;94.95;;;;;24.10;1.00;;;;;;2268108;61;1554;-88
2022/08/26 01:41:14;209602.00;0.70;362.45;0.00;0.00;0.62;;;;;24.00;1.00;;;;;;2268151;61;982;-88
2022/08/26 01:43:45;160141.00;0.53;277.28;0.00;0.00;0.62;;;;;24.00;1.00;;;;;;2268179;61;1010;-88
2022/08/26 01:46:17;419139.00;1.40;722.71;3627.00;0.01;6.91;;;;;23.80;1.00;;;;;;2268088;61;1538;-88
2022/08/26 01:48:46;174675.00;0.58;302.32;0.00;0.00;0.62;;;;;23.50;1.00;;;;;;2268123;61;1285;-88
2022/08/26 01:51:14;223203.00;0.74;385.85;53053.00;0.18;92.47;;;;;23.40;1.00;;;;;;2268121;61;977;-87
2022/08/26 01:53:44;167282.00;0.56;289.58;0.00;0.00;0.62;;;;;23.70;1.00;;;;;;2268071;61;1996;-89
2022/08/26 01:56:17;2315722.00;7.72;4294.05;422193.00;1.41;727.96;;;;;23.80;1.00;;;;;;2268119;61;942;-88
2022/08/26 01:58:48;17134.00;0.06;30.31;0.00;0.00;0.62;;;;;23.80;1.00;;;;;;2268143;61;1448;-88
2022/08/26 02:01:16;84208.00;0.28;146.31;0.00;0.00;0.62;;;;;23.80;1.00;;;;;;2268079;61;1861;-87
2022/08/26 02:03:53;179850.00;0.60;311.23;36162.00;0.12;63.25;;;;;23.80;1.00;;;;;;2268406;61;1602;-88
2022/08/26 02:06:20;149059.00;0.50;258.19;0.00;0.00;0.62;;;;;24.00;1.00;;;;;;2268782;61;946;-87
2022/08/26 02:08:53;320751.00;1.07;553.59;40534.00;0.14;70.81;;;;;24.00;1.00;;;;;;2268799;61;1439;-90
2022/08/26 02:11:22;625617.00;2.09;1078.47;58411.00;0.19;101.73;;;;;23.90;1.00;;;;;;2268789;61;1454;-89
2022/08/26 02:13:55;1860425.00;6.20;3341.56;111523.00;0.37;193.46;;;;;23.90;1.00;;;;;;2268847;61;1990;-86
2022/08/26 02:16:30;931842.00;3.11;1612.12;57696.00;0.19;100.49;;;;;23.90;1.00;;;;;;2268798;61;1457;-89
2022/08/26 02:18:58;987387.00;3.29;1710.15;87980.00;0.29;152.82;;;;;24.00;1.00;;;;;;2268704;61;1055;-87
2022/08/26 02:21:25;335455.00;1.12;578.86;64643.00;0.22;112.50;;;;;23.80;1.00;;;;;;2268736;61;1449;-86
2022/08/26 02:23:55;214731.00;0.72;371.28;9470.00;0.03;17.03;;;;;23.50;1.00;;;;;;2268789;61;1600;-89
2022/08/26 02:26:29;205534.00;0.69;355.45;0.00;0.00;0.62;;;;;23.40;1.00;;;;;;2268793;61;1372;-88
2022/08/26 02:29:05;134048.00;0.45;232.31;0.00;0.00;0.62;;;;;23.50;1.00;;;;;;2268707;61;1087;-88
2022/08/26 02:31:34;143218.00;0.48;248.12;0.00;0.00;0.62;;;;;23.60;1.00;;;;;;2268644;61;988;-87
2022/08/26 02:34:08;224657.00;0.75;388.36;0.00;0.00;0.62;;;;;23.50;1.00;;;;;;2268646;61;2212;-86
2022/08/26 02:36:36;0.00;0.00;0.62;0.00;0.00;0.62;;;;;23.30;1.00;;;;;;2268642;61;1431;-88
2022/08/26 02:39:03;242840.00;0.81;419.64;0.00;0.00;0.62;;;;;23.50;1.00;;;;;;2268635;61;1549;-88
2022/08/26 02:41:35;279953.00;0.93;483.46;46759.00;0.16;81.58;;;;;23.60;1.00;;;;;;2268716;61;1028;-88
2022/08/26 02:44:05;129728.00;0.43;224.86;0.00;0.00;0.62;;;;;23.70;1.00;;;;;;2268664;61;1074;-88
2022/08/26 02:46:33;60725.00;0.20;105.73;0.00;0.00;0.62;;;;;23.70;1.00;;;;;;2268422;61;1469;-88
2022/08/26 02:49:00;163513.00;0.55;283.09;0.00;0.00;0.62;;;;;23.70;1.00;;;;;;2268654;61;1123;-88
2022/08/26 02:51:30;229197.00;0.76;396.17;43600.00;0.15;76.12;;;;;23.70;1.00;;;;;;2268652;61;1059;-88
2022/08/26 02:54:02;275210.00;0.92;475.30;39202.00;0.13;68.51;;;;;23.80;1.00;;;;;;2268630;61;2006;-88
2022/08/26 02:56:29;1105739.00;3.69;1920.69;45084.00;0.15;78.68;;;;;23.80;1.00;;;;;;2268560;61;1414;-89
2022/08/26 02:58:59;1312621.00;4.38;2295.22;22871.00;0.08;40.24;;;;;23.90;1.00;;;;;;2268577;61;1018;-87
2022/08/26 03:01:30;893109.00;2.98;1544.02;131989.00;0.44;228.76;;;;;24.00;1.00;;;;;;2268633;61;1487;-88
2022/08/26 03:03:58;427265.00;1.42;736.68;128731.00;0.43;223.14;;;;;24.00;1.00;;;;;;2268607;61;1418;-87
2022/08/26 03:06:25;191273.00;0.64;330.90;72808.00;0.24;126.61;;;;;23.90;1.00;;;;;;2268551;61;1546;-88
2022/08/26 03:08:55;153653.00;0.51;266.10;0.00;0.00;0.62;;;;;23.80;1.00;;;;;;2268358;61;1633;-88
2022/08/26 03:11:25;263795.00;0.88;455.67;90129.00;0.30;156.53;;;;;23.90;1.00;;;;;;2268527;61;1439;-88
2022/08/26 03:13:53;229040.00;0.76;395.90;55948.00;0.19;97.47;;;;;24.00;1.00;;;;;;2268510;61;1916;-89
2022/08/26 03:16:22;185586.00;0.62;321.11;0.00;0.00;0.62;;;;;24.00;1.00;;;;;;2268538;61;1578;-88
2022/08/26 03:18:49;673790.00;2.25;1161.82;290370.00;0.97;501.37;;;;;24.00;1.00;;;;;;2268446;61;1111;-87
2022/08/26 03:21:18;216950.00;0.72;375.10;0.00;0.00;0.62;;;;;23.90;1.00;;;;;;2268596;61;942;-90
2022/08/26 03:23:46;163278.00;0.54;282.69;0.00;0.00;0.62;;;;;23.60;1.00;;;;;;2268525;61;1640;-87
2022/08/26 03:26:14;64252.00;0.21;111.83;0.00;0.00;0.62;;;;;23.60;1.00;;;;;;2268623;61;1122;-86
2022/08/26 03:31:29;0.00;0.00;0.62;0.00;0.00;0.62;;;;;23.00;1.00;;;;;;2268270;61;1225;-87
2022/08/26 03:33:57;232295.00;0.77;401.50;0.00;0.00;0.62;;;;;23.00;1.00;;;;;;2268413;61;1995;-88
2022/08/26 03:36:30;189100.00;0.63;327.16;0.00;0.00;0.62;;;;;23.00;1.00;;;;;;2268454;61;1597;-88
2022/08/26 03:39:07;198294.00;0.66;342.99;76149.00;0.25;132.38;;;;;23.10;1.00;;;;;;2268526;61;1031;-88
2022/08/26 03:41:37;251068.00;0.84;433.79;16411.00;0.05;29.05;;;;;23.10;1.00;;;;;;2268442;61;1055;-89
2022/08/26 03:44:11;254537.00;0.85;439.75;0.00;0.00;0.62;;;;;23.20;1.00;;;;;;2268400;61;1626;-89
2022/08/26 03:46:47;760318.00;2.53;1312.00;143936.00;0.48;249.36;;;;;23.10;1.00;;;;;;2268449;61;1479;-88
2022/08/26 03:49:14;739763.00;2.47;1276.26;45246.00;0.15;78.96;;;;;23.00;1.00;;;;;;2268461;61;1352;-90
2022/08/26 03:51:46;1377499.00;4.59;2414.66;172664.00;0.58;298.86;;;;;23.10;1.00;;;;;;2268327;61;1460;-87
2022/08/26 03:54:18;1258834.00;4.20;2196.96;61492.00;0.20;107.06;;;;;23.10;1.00;;;;;;2268339;61;1934;-90
2022/08/26 03:56:48;920903.00;3.07;1592.86;61559.00;0.21;107.17;;;;;23.10;1.00;;;;;;2268402;61;1448;-88
2022/08/26 03:59:17;1080287.00;3.60;1875.21;106488.00;0.35;184.77;;;;;22.90;1.00;;;;;;2268355;61;1570;-89
2022/08/26 04:01:49;467851.00;1.56;806.49;72240.00;0.24;125.63;;;;;23.10;1.00;;;;;;2268357;61;1546;-88
2022/08/26 04:04:16;312398.00;1.04;539.23;65194.00;0.22;113.45;;;;;23.10;1.00;;;;;;2268512;61;885;-87
2022/08/26 04:06:50;431803.00;1.44;744.49;77563.00;0.26;134.83;;;;;23.20;1.00;;;;;;2268349;61;1292;-89
2022/08/26 04:09:21;83392.00;0.28;144.90;0.00;0.00;0.62;;;;;23.10;1.00;;;;;;2268408;61;1590;-91
2022/08/26 04:11:53;198599.00;0.66;343.51;0.00;0.00;0.62;;;;;23.10;1.00;;;;;;2268310;61;1369;-88
2022/08/26 04:14:26;155851.00;0.52;269.89;0.00;0.00;0.62;;;;;23.10;1.00;;;;;;2268311;61;1936;-89
2022/08/26 04:17:05;224525.00;0.75;388.13;0.00;0.00;0.62;;;;;23.10;1.00;;;;;;2268315;61;1383;-89
2022/08/26 04:19:36;182696.00;0.61;316.13;0.00;0.00;0.62;;;;;23.00;1.00;;;;;;2268344;61;1178;-91
2022/08/26 04:22:03;163082.00;0.54;282.35;0.00;0.00;0.62;;;;;22.80;1.00;;;;;;2268034;61;1597;-88
2022/08/26 04:24:33;360252.00;1.20;621.48;31615.00;0.11;55.38;;;;;22.90;1.00;;;;;;2268296;61;1466;-89
2022/08/26 04:27:02;78260.00;0.26;136.03;0.00;0.00;0.62;;;;;22.90;1.00;;;;;;2268182;61;1461;-89
2022/08/26 04:29:41;0.00;0.00;0.62;0.00;0.00;0.62;;;;;22.90;1.00;;;;;;2268393;61;1020;-87
2022/08/26 04:32:12;205227.00;0.68;354.92;58993.00;0.20;102.74;;;;;22.50;1.00;;;;;;2268145;61;1443;-88
2022/08/26 04:34:45;262967.00;0.88;454.25;0.00;0.00;0.62;;;;;22.50;1.00;;;;;;2268308;61;2017;-90
2022/08/26 04:37:18;84153.00;0.28;146.21;0.00;0.00;0.62;;;;;22.60;1.00;;;;;;2268285;61;1628;-88
2022/08/26 04:39:46;79128.00;0.26;137.53;0.00;0.00;0.62;;;;;22.70;1.00;;;;;;2268260;61;1018;-88
2022/08/26 04:42:18;278827.00;0.93;481.52;43564.00;0.15;76.05;;;;;22.80;1.00;;;;;;2268325;61;1558;-90
2022/08/26 04:44:46;660882.00;2.20;1139.47;5255.00;0.02;9.73;;;;;22.80;1.00;;;;;;2268347;61;887;-89
2022/08/26 04:47:30;2055909.00;6.85;3739.76;103141.00;0.34;178.99;;;;;22.80;1.00;;;;;;2268229;61;1629;-89
2022/08/26 04:50:02;1022850.00;3.41;1772.98;26811.00;0.09;47.06;;;;;23.00;1.00;;;;;;2268227;61;1460;-89
2022/08/26 04:52:36;1685767.00;5.62;2997.80;94061.00;0.31;163.32;;;;;22.70;1.00;;;;;;2268265;61;1559;-90
2022/08/26 04:55:12;1029536.00;3.43;1784.85;138972.00;0.46;240.80;;;;;22.90;1.00;;;;;;2268241;61;1915;-87
2022/08/26 04:57:43;837346.00;2.79;1446.33;87786.00;0.29;152.48;;;;;23.10;1.00;;;;;;2268231;61;1554;-88
2022/08/26 05:00:16;724150.00;2.41;1249.14;104492.00;0.35;181.32;;;;;23.10;1.00;;;;;;2268242;61;1331;-90
2022/08/26 05:02:56;418917.00;1.40;722.33;71443.00;0.24;124.25;;;;;22.90;1.00;;;;;;2268292;61;1476;-89
2022/08/26 05:05:24;902095.00;3.01;1559.80;98725.00;0.33;171.37;;;;;22.90;1.00;;;;;;2268188;61;1013;-89
2022/08/26 05:07:55;117925472.00;393.08;66428828.00;74185.00;0.25;128.99;;;;;23.10;1.00;;;;;;2268131;61;1457;-88
2022/08/26 05:10:24;602623.00;2.01;1038.75;84427.00;0.28;146.68;;;;;23.30;1.00;;;;;;2268226;61;1501;-87
2022/08/26 05:12:51;226164.00;0.75;390.95;17100.00;0.06;30.25;;;;;23.40;1.00;;;;;;2268085;61;1404;-87
2022/08/26 05:15:21;332036.00;1.11;572.99;0.00;0.00;0.62;;;;;23.40;1.00;;;;;;2267926;61;1986;-90
2022/08/26 05:17:54;330551.00;1.10;570.43;0.00;0.00;0.62;;;;;23.60;1.00;;;;;;2268115;61;1494;-88
2022/08/26 05:20:24;181068.00;0.60;313.33;0.00;0.00;0.62;;;;;23.70;1.00;;;;;;2268198;61;1241;-89
2022/08/26 05:23:00;251275.00;0.84;434.14;31087.00;0.10;54.46;;;;;23.90;1.00;;;;;;2268180;61;1527;-86
2022/08/26 05:25:41;204231.00;0.68;353.21;0.00;0.00;0.62;;;;;23.90;1.00;;;;;;2268192;61;1439;-88
2022/08/26 05:28:11;112099.00;0.37;194.45;0.00;0.00;0.62;;;;;24.10;1.00;;;;;;2267942;61;1472;-88
2022/08/26 05:30:46;247915.00;0.83;428.37;0.00;0.00;0.62;;;;;24.20;1.00;;;;;;2268108;61;1219;-89
2022/08/26 05:33:21;254792.00;0.85;440.19;34852.00;0.12;60.98;;;;;24.20;1.00;;;;;;2267903;61;1565;-88
2022/08/26 05:35:51;510644.00;1.70;880.15;105809.00;0.35;183.60;;;;;24.70;1.00;;;;;;2267996;61;1946;-87
2022/08/26 05:38:27;153210.00;0.51;265.34;0.00;0.00;0.62;;;;;25.10;1.00;;;;;;2268643;61;1924;-88
2022/08/26 05:41:04;197228.00;0.66;341.15;0.00;0.00;0.62;;;;;25.20;1.00;;;;;;2268908;61;1480;-90
2022/08/26 05:43:37;140940.00;0.47;244.19;0.00;0.00;0.62;;;;;25.20;1.00;;;;;;2268717;61;1592;-91
2022/08/26 05:46:14;216354.00;0.72;374.07;51843.00;0.17;90.37;;;;;25.20;1.00;;;;;;2268844;61;1566;-89
2022/08/26 05:48:47;114903.00;0.38;199.29;0.00;0.00;0.62;;;;;25.10;1.00;;;;;;2268836;61;1573;-88
2022/08/26 05:51:19;575029.00;1.92;991.12;52287.00;0.17;91.14;;;;;24.80;1.00;;;;;;2268737;61;1558;-87
2022/08/26 05:53:51;172498.00;0.57;298.57;0.00;0.00;0.62;;;;;24.60;1.00;;;;;;2268765;61;1920;-88
2022/08/26 05:56:23;124082.00;0.41;215.12;0.00;0.00;0.62;;;;;24.40;1.00;;;;;;2268856;61;1050;-88
2022/08/26 05:58:53;80115.00;0.27;139.24;0.00;0.00;0.62;;;;;24.30;1.00;;;;;;2268749;61;1426;-87
2022/08/26 06:01:27;183784.00;0.61;318.01;0.00;0.00;0.62;;;;;24.30;1.00;;;;;;2268842;61;1145;-87
2022/08/26 06:04:01;243687.00;0.81;421.09;0.00;0.00;0.62;;;;;24.30;1.00;;;;;;2268767;61;2098;-88
2022/08/26 06:06:31;309343.00;1.03;533.98;42411.00;0.14;74.06;;;;;24.30;1.00;;;;;;2268749;61;1495;-87
2022/08/26 06:09:09;166521.00;0.56;288.27;13844.00;0.05;24.61;;;;;24.30;1.00;;;;;;2268808;61;1904;-86
2022/08/26 06:11:39;91211.00;0.30;158.40;0.00;0.00;0.62;;;;;24.50;1.00;;;;;;2265050;61;1259;-87
2022/08/26 06:14:10;147260.00;0.49;255.09;0.00;0.00;0.62;;;;;24.70;1.00;;;;;;2268756;61;1924;-85
2022/08/26 06:16:43;204973.00;0.68;354.48;0.00;0.00;0.62;;;;;25.10;1.00;;;;;;2268640;61;1305;-87
2022/08/26 06:19:20;108187.00;0.36;187.70;0.00;0.00;0.62;;;;;26.00;1.00;;;;;;2268813;61;1578;-88
2022/08/26 06:21:49;98172.00;0.33;170.42;0.00;0.00;0.62;;;;;27.10;1.00;;;;;;2268798;61;1076;-88
2022/08/26 06:27:12;30464.00;0.10;53.39;0.00;0.00;0.62;;;;;29.00;1.00;;;;;;2268740;61;1335;-89
2022/08/26 06:29:43;174344.00;0.58;301.75;0.00;0.00;0.62;;;;;29.80;1.00;;;;;;2268755;61;1447;-89
2022/08/26 06:32:12;382191.00;1.27;659.19;0.00;0.00;0.62;;;;;30.50;1.00;;;;;;2268600;61;1391;-90
2022/08/26 06:34:43;337547.00;1.13;582.46;0.00;0.00;0.62;;;;;30.90;1.00;;;;;;2268660;61;1916;-89
2022/08/26 06:37:16;115871.00;0.39;200.96;0.00;0.00;0.62;;;;;31.60;1.00;;;;;;2268622;61;1360;-87
2022/08/26 06:39:43;131474.00;0.44;227.87;0.00;0.00;0.62;;;;;32.40;1.00;;;;;;2268740;61;844;-88
2022/08/26 06:42:16;316582.00;1.06;546.42;0.00;0.00;0.62;;;;;32.80;1.00;;;;;;2268533;61;1516;-88
2022/08/26 06:44:43;1885186.00;6.28;3391.18;221182.00;0.74;382.38;;;;;33.00;1.00;;;;;;2268643;61;1481;-89
2022/08/26 06:47:13;918406.00;3.06;1588.47;47040.00;0.16;82.07;;;;;33.80;1.00;;;;;;2268567;61;1515;-89
2022/08/26 06:49:53;277067.00;0.92;478.49;58371.00;0.19;101.66;;;;;34.40;1.00;;;;;;2268330;61;1455;-89
2022/08/26 06:52:31;367199.00;1.22;633.42;58163.00;0.19;101.30;;;;;34.70;1.00;;;;;;2268552;61;1502;-89
2022/08/26 06:55:07;460289.00;1.53;793.48;48813.00;0.16;85.13;;;;;35.10;1.00;;;;;;2268613;61;1915;-88
2022/08/26 07:00:21;176004.00;0.59;304.61;61339.00;0.20;106.79;;;;;34.80;1.00;;;;;;2268426;61;1643;-89
2022/08/26 07:02:51;362218.00;1.21;624.86;105434.00;0.35;182.95;;;;;35.30;1.00;;;;;;2268501;61;988;-88
2022/08/26 07:05:24;379160.00;1.26;653.98;33017.00;0.11;57.80;;;;;35.20;1.00;;;;;;2268443;61;1331;-89
2022/08/26 07:07:57;107832.00;0.36;187.09;0.00;0.00;0.62;;;;;34.40;1.00;;;;;;2268511;61;1491;-88
2022/08/26 07:10:34;175901.00;0.59;304.43;0.00;0.00;0.62;;;;;34.20;1.00;;;;;;2268506;61;1638;-89
2022/08/26 07:13:05;369418.00;1.23;637.24;145548.00;0.49;252.13;;;;;34.30;1.00;;;;;;2268266;61;1116;-88
2022/08/26 07:15:47;170054.00;0.57;294.36;0.00;0.00;0.62;;;;;34.50;1.00;;;;;;2264337;61;1911;-88
2022/08/26 07:18:18;299615.00;1.00;517.26;54275.00;0.18;94.58;;;;;34.90;1.00;;;;;;2264489;61;1547;-89
2022/08/26 07:21:23;100834.00;0.34;175.01;0.00;0.00;0.62;;;;;34.80;1.00;;;;;;2264534;61;1079;-89
2022/08/26 07:24:02;319524.00;1.07;551.48;60893.00;0.20;106.02;;;;;34.40;1.00;;;;;;2264399;61;1513;-89
2022/08/26 07:26:41;389087.00;1.30;671.05;59614.00;0.20;103.81;;;;;34.30;1.00;;;;;;2264276;61;1433;-89
2022/08/26 07:29:15;376012.00;1.25;648.57;51870.00;0.17;90.42;;;;;34.80;1.00;;;;;;2264491;61;1557;-89
2022/08/26 07:31:51;251189.00;0.84;434.00;50610.00;0.17;88.24;;;;;35.00;1.00;;;;;;2264465;61;1010;-88
2022/08/26 07:34:22;363163.00;1.21;626.49;53468.00;0.18;93.18;;;;;34.60;1.00;;;;;;2264487;61;1987;-88
2022/08/26 07:36:56;43486.00;0.14;75.92;0.00;0.00;0.62;;;;;34.50;1.00;;;;;;2264379;61;1401;-88
2022/08/26 07:39:29;224682.00;0.75;388.40;84672.00;0.28;147.11;;;;;34.30;1.00;;;;;;2264436;61;1710;-88
2022/08/26 07:42:00;191347.00;0.64;331.03;37836.00;0.13;66.14;;;;;33.40;1.00;;;;;;2264483;61;1537;-87
2022/08/26 07:44:30;149290.00;0.50;258.58;0.00;0.00;0.62;;;;;33.10;1.00;;;;;;2267916;61;1035;-87
2022/08/26 07:46:59;297341.00;0.99;513.35;39368.00;0.13;68.79;;;;;32.90;1.00;;;;;;2268358;61;1438;-89
2022/08/26 07:49:29;259735.00;0.87;448.69;73580.00;0.25;127.95;;;;;32.90;1.00;;;;;;2268405;61;1440;-88
2022/08/26 07:52:05;59992.00;0.20;104.46;0.00;0.00;0.62;;;;;33.00;1.00;;;;;;2268302;61;1460;-89
2022/08/26 07:54:36;164378.00;0.55;284.58;0.00;0.00;0.62;;;;;33.30;1.00;;;;;;2268286;61;2021;-87
2022/08/26 07:57:08;143179.00;0.48;248.05;0.00;0.00;0.62;;;;;33.60;1.00;;;;;;2268347;61;1582;-88
2022/08/26 07:59:45;101851.00;0.34;176.77;0.00;0.00;0.62;;;;;34.20;1.00;;;;;;2268335;61;1427;-89
2022/08/26 08:02:14;180407.00;0.60;312.19;61815.00;0.21;107.61;;;;;34.20;1.00;;;;;;2268191;61;1366;-89
2022/08/26 08:04:43;116040.00;0.39;201.25;0.00;0.00;0.62;;;;;34.60;1.00;;;;;;2268340;61;1300;-89
2022/08/26 08:07:14;145554.00;0.49;252.14;0.00;0.00;0.62;;;;;34.90;1.00;;;;;;2268317;61;1397;-87
2022/08/26 08:09:48;324560.00;1.08;560.14;73633.00;0.25;128.04;;;;;35.40;1.00;;;;;;2268405;61;1524;-89
2022/08/26 08:12:17;138426.00;0.46;239.86;0.00;0.00;0.62;;;;;35.80;1.00;;;;;;2268242;61;1647;-85
2022/08/26 08:14:56;260474.00;0.87;449.96;0.00;0.00;0.62;;;;;35.30;1.00;;;;;;2268135;61;1915;-89
2022/08/26 08:17:24;167979.00;0.56;290.79;0.00;0.00;0.62;;;;;34.90;1.00;;;;;;2268310;61;1557;-90
2022/08/26 08:19:57;231052.00;0.77;399.36;0.00;0.00;0.62;;;;;35.00;1.00;;;;;;2268392;61;1023;-89
2022/08/26 08:22:28;200206.00;0.67;346.28;0.00;0.00;0.62;;;;;35.30;1.00;;;;;;2268229;61;1362;-88
2022/08/26 08:25:04;200919.00;0.67;347.51;0.00;0.00;0.62;;;;;35.80;1.00;;;;;;2268283;61;1628;-86
2022/08/26 08:27:34;258039.00;0.86;445.78;0.00;0.00;0.62;;;;;35.60;1.00;;;;;;2268303;61;1671;-88
2022/08/26 08:30:04;248774.00;0.83;429.84;54381.00;0.18;94.76;;;;;35.10;1.00;;;;;;2268253;61;1490;-89
2022/08/26 08:32:37;184010.00;0.61;318.39;57440.00;0.19;100.05;;;;;34.80;1.00;;;;;;2268126;61;1079;-89
2022/08/26 08:35:07;131259.00;0.44;227.50;0.00;0.00;0.62;;;;;34.30;1.00;;;;;;2268265;61;2001;-88
2022/08/26 08:37:55;181778.00;0.61;314.55;16731.00;0.06;29.61;;;;;33.60;1.00;;;;;;2268217;61;1373;-88
2022/08/26 08:40:27;46932.00;0.16;81.88;0.00;0.00;0.62;;;;;33.00;1.00;;;;;;2268353;61;1068;-88
2022/08/26 08:43:09;335308.00;1.12;578.61;0.00;0.00;0.62;;;;;33.00;1.00;;;;;;2268281;61;1378;-88
2022/08/26 08:45:40;249906.00;0.83;431.79;14717.00;0.05;26.12;;;;;32.80;1.00;;;;;;2268175;61;1446;-90
2022/08/26 08:48:19;152636.00;0.51;264.35;0.00;0.00;0.62;;;;;33.10;1.00;;;;;;2268270;61;1454;-88
2022/08/26 08:50:52;214068.00;0.71;370.14;45052.00;0.15;78.63;;;;;32.80;1.00;;;;;;2268172;61;1625;-88
2022/08/26 08:53:34;53025.00;0.18;92.42;0.00;0.00;0.62;;;;;32.90;1.00;;;;;;2268301;61;1562;-88
2022/08/26 08:56:10;220031.00;0.73;380.40;0.00;0.00;0.62;;;;;33.00;1.00;;;;;;2268247;61;2014;-87
2022/08/26 08:58:56;117551.00;0.39;203.86;0.00;0.00;0.62;;;;;33.30;1.00;;;;;;2268254;61;1354;-88
2022/08/26 09:01:35;24369.00;0.08;42.84;0.00;0.00;0.62;;;;;32.80;1.00;;;;;;2268285;61;1061;-88
2022/08/26 09:04:22;204311.00;0.68;353.34;33534.00;0.11;58.70;;;;;32.90;1.00;;;;;;2268247;61;1418;-88
2022/08/26 09:06:55;178035.00;0.59;308.11;0.00;0.00;0.62;;;;;32.70;1.00;;;;;;2268179;61;1506;-90
2022/08/26 09:09:47;0.00;0.00;0.62;0.00;0.00;0.62;;;;;32.60;1.00;;;;;;2268236;61;1163;-89
2022/08/26 09:12:20;221201.00;0.74;382.41;0.00;0.00;0.62;;;;;32.40;1.00;;;;;;2268321;61;1583;-88
2022/08/26 09:14:57;206103.00;0.69;356.43;0.00;0.00;0.62;;;;;32.50;1.00;;;;;;2268920;61;1924;-90
2022/08/26 09:17:39;226990.00;0.76;392.37;0.00;0.00;0.62;;;;;32.50;1.00;;;;;;2268906;61;1475;-88
2022/08/26 09:20:14;161902.00;0.54;280.32;0.00;0.00;0.62;;;;;32.70;1.00;;;;;;2268946;61;940;-88
2022/08/26 09:22:42;155482.00;0.52;269.25;0.00;0.00;0.62;;;;;33.00;1.00;;;;;;2268917;61;1559;-88
2022/08/26 09:25:14;186538.00;0.62;322.75;21544.00;0.07;37.94;;;;;33.00;1.00;;;;;;2268967;61;1062;-88
2022/08/26 09:27:47;163715.00;0.55;283.44;0.00;0.00;0.62;;;;;32.90;1.00;;;;;;2268817;61;1361;-87
2022/08/26 09:30:22;202780.00;0.68;350.71;48998.00;0.16;85.45;;;;;33.10;1.00;;;;;;2268861;61;1506;-87
2022/08/26 09:33:02;108621.00;0.36;188.45;0.00;0.00;0.62;;;;;33.30;1.00;;;;;;2268788;61;1452;-88
2022/08/26 09:35:33;165365.00;0.55;286.28;0.00;0.00;0.62;;;;;33.40;1.00;;;;;;2268857;61;1911;-87
2022/08/26 09:38:02;159243.00;0.53;275.74;0.00;0.00;0.62;;;;;33.20;1.00;;;;;;2268880;61;1381;-86
2022/08/26 09:40:53;314401.00;1.05;542.67;0.00;0.00;0.62;;;;;33.30;1.00;;;;;;2268916;61;1018;-87
2022/08/26 09:43:27;255869.00;0.85;442.04;13695.00;0.05;24.35;;;;;33.00;1.00;;;;;;2268704;61;1082;-87
2022/08/26 09:46:12;340375.00;1.13;587.32;0.00;0.00;0.62;;;;;33.00;1.00;;;;;;2268905;61;1045;-86
2022/08/26 09:48:41;419187.00;1.40;722.79;19464.00;0.06;34.34;;;;;33.60;1.00;;;;;;2268830;61;1475;-87
2022/08/26 09:51:28;1361197.00;4.54;2384.55;97917.00;0.33;169.98;;;;;33.40;1.00;;;;;;2268883;61;1022;-87
2022/08/26 09:53:57;820479.00;2.73;1416.86;49743.00;0.17;86.74;;;;;33.30;1.00;;;;;;2268730;61;1559;-87
2022/08/26 09:56:28;1226322.00;4.09;2137.88;63591.00;0.21;110.68;;;;;33.10;1.00;;;;;;2268803;61;1996;-87
2022/08/26 09:58:59;1195740.00;3.99;2082.52;78436.00;0.26;136.34;;;;;32.60;1.00;;;;;;2268783;61;1019;-89
2022/08/26 10:01:31;1290817.00;4.30;2255.31;220401.00;0.73;381.03;;;;;32.70;1.00;;;;;;2268775;61;1535;-88
2022/08/26 10:04:07;646069.00;2.15;1113.84;55564.00;0.19;96.81;;;;;32.80;1.00;;;;;;2268808;61;1472;-89
2022/08/26 10:06:40;521874.00;1.74;899.49;126650.00;0.42;219.55;;;;;32.70;1.00;;;;;;2268629;61;1588;-89
2022/08/26 10:09:12;343526.00;1.15;592.73;66674.00;0.22;116.01;;;;;32.10;1.00;;;;;;2268764;61;1542;-88
2022/08/26 10:11:46;222462.00;0.74;384.58;0.00;0.00;0.62;;;;;32.10;1.00;;;;;;2268791;61;1135;-89